Terminal Aerodrome Forecast
Issued by NWS

Home | Current Version | Previous Version | Text Only | Print | Product List | Glossary On
Versions: 1 2 3 4 5 6 7 8 9 10 11 12 13
000
FTUS42 TJSJ 041940 AAA
TAFJMZ
TAF AMD
TJMZ 041940Z 0420/0518 27008KT P6SM VCSH SCT025 BKN040
     FM042300 07005KT P6SM FEW030 SCT050 SCT080
     FM051500 25008KT P6SM FEW030
      AMD NOT SKED 0423/0511=

USA.gov is the U.S. government's official web portal to all federal, state and local government web resources and services.